Time;durP1;ratioP1;P1;durP2;ratioP2;P2;SDS_P1;SDS_P2;PMS_P1;PMS_P2;Temp;Humidity;BMP_temperature;BMP_pressure;BME280_temperature;BME280_humidity;BME280_pressure;Samples;Min_cycle;Max_cycle;Signal;HPM_P1;HPM_P2
2022/02/15 00:00:08;;;;;;;;;;;;;;;;;;2137974;27;20084;-43
2022/02/15 00:01:08;;;;;;;;;;;;;;;;;;2137728;27;20303;-43
2022/02/15 00:02:10;;;;;;;;;;;;;;;;;;2132446;27;20067;-43
2022/02/15 00:03:10;;;;;;;;;;;;;;;;;;2132818;27;19983;-43
2022/02/15 00:04:11;;;;;;;;;;;;;;;;;;2132286;27;19923;-43
2022/02/15 00:05:12;;;;;;;;;;;;;;;;;;2133420;27;19948;-43
2022/02/15 00:06:13;;;;;;;;;;;;;;;;;;2133800;27;20411;-43
2022/02/15 00:07:13;;;;;;;;;;;;;;;;;;2132332;27;19923;-43
2022/02/15 00:08:14;;;;;;;;;;;;;;;;;;2134315;27;19922;-43
2022/02/15 00:09:15;;;;;;;;;;;;;;;;;;2139328;27;19923;-43
2022/02/15 00:10:16;;;;;;;;;;;;;;;;;;2140872;27;19923;-42
2022/02/15 00:11:17;;;;;;;;;;;;;;;;;;2137429;27;19972;-43
2022/02/15 00:12:18;;;;;;;;;;;;;;;;;;2131985;27;19937;-43
2022/02/15 00:13:20;;;;;;;;;;;;;;;;;;2132264;27;20295;-42
2022/02/15 00:14:21;;;;;;;;;;;;;;;;;;2136453;27;19923;-43
2022/02/15 00:15:22;;;;;;;;;;;;;;;;;;2140974;27;19922;-42
2022/02/15 00:16:23;;;;;;;;;;;;;;;;;;2133738;27;20183;-43
2022/02/15 00:17:24;;;;;;;;;;;;;;;;;;2137594;27;19933;-43
2022/02/15 00:18:25;;;;;;;;;;;;;;;;;;2140832;27;19929;-43
2022/02/15 00:19:25;;;;;;;;;;;;;;;;;;2140361;27;19923;-44
2022/02/15 00:20:27;;;;;;;;;;;;;;;;;;2133240;27;20264;-43
2022/02/15 00:21:28;;;;;;;;;;;;;;;;;;2132114;27;20371;-44
2022/02/15 00:22:29;;;;;;;;;;;;;;;;;;2135369;27;19923;-43
2022/02/15 00:23:29;;;;;;;;;;;;;;;;;;2133116;27;20058;-43
2022/02/15 00:24:30;;;;;;;;;;;;;;;;;;2132299;27;19923;-43
2022/02/15 00:25:31;;;;;;;;;;;;;;;;;;2135114;27;20344;-44
2022/02/15 00:26:32;;;;;;;;;;;;;;;;;;2132192;27;19930;-44
2022/02/15 00:27:33;;;;;;;;;;;;;;;;;;2132208;27;19957;-43
2022/02/15 00:28:34;;;;;;;;;;;;;;;;;;2135442;27;20493;-43
2022/02/15 00:29:34;;;;;;;;;;;;;;;;;;2140902;27;19975;-43
2022/02/15 00:30:35;;;;;;;;;;;;;;;;;;2141078;27;20387;-42
2022/02/15 00:31:36;;;;;;;;;;;;;;;;;;2137249;27;19934;-43
2022/02/15 00:32:37;;;;;;;;;;;;;;;;;;2140683;27;19929;-44
2022/02/15 00:33:37;;;;;;;;;;;;;;;;;;2140318;27;19923;-43
2022/02/15 00:34:38;;;;;;;;;;;;;;;;;;2137027;27;19961;-43
2022/02/15 00:35:39;;;;;;;;;;;;;;;;;;2140795;27;19926;-43
2022/02/15 00:36:40;;;;;;;;;;;;;;;;;;2136176;27;19953;-43
2022/02/15 00:37:41;;;;;;;;;;;;;;;;;;2139343;27;19929;-43
2022/02/15 00:38:42;;;;;;;;;;;;;;;;;;2140799;27;19931;-43
2022/02/15 00:39:43;;;;;;;;;;;;;;;;;;2138654;27;19975;-43
2022/02/15 00:40:44;;;;;;;;;;;;;;;;;;2140732;27;19967;-43
2022/02/15 00:41:44;;;;;;;;;;;;;;;;;;2140681;27;19922;-43
2022/02/15 00:42:47;;;;;;;;;;;;;;;;;;2137799;27;19968;-44
2022/02/15 00:43:48;;;;;;;;;;;;;;;;;;2140762;27;19962;-42
2022/02/15 00:44:49;;;;;;;;;;;;;;;;;;2141639;27;19923;-43
2022/02/15 00:45:49;;;;;;;;;;;;;;;;;;2136573;27;20294;-43
2022/02/15 00:46:50;;;;;;;;;;;;;;;;;;2140685;27;19926;-43
2022/02/15 00:47:51;;;;;;;;;;;;;;;;;;2139481;27;19927;-43
2022/02/15 00:48:52;;;;;;;;;;;;;;;;;;2138822;27;19927;-44
2022/02/15 00:49:53;;;;;;;;;;;;;;;;;;2140598;27;20025;-43
2022/02/15 00:50:54;;;;;;;;;;;;;;;;;;2138681;27;19923;-43
2022/02/15 00:51:54;;;;;;;;;;;;;;;;;;2131964;27;19930;-44
2022/02/15 00:52:56;;;;;;;;;;;;;;;;;;2132049;27;20002;-42
2022/02/15 00:53:56;;;;;;;;;;;;;;;;;;2135582;27;20018;-43
2022/02/15 00:54:57;;;;;;;;;;;;;;;;;;2140510;27;20067;-42
2022/02/15 00:55:58;;;;;;;;;;;;;;;;;;2140619;27;19926;-43
2022/02/15 00:56:59;;;;;;;;;;;;;;;;;;2136121;27;20359;-43
2022/02/15 00:57:59;;;;;;;;;;;;;;;;;;2140744;27;20017;-42
2022/02/15 00:59:00;;;;;;;;;;;;;;;;;;2141184;27;20299;-43
2022/02/15 01:00:01;;;;;;;;;;;;;;;;;;2136882;27;19930;-42
2022/02/15 01:01:02;;;;;;;;;;;;;;;;;;2138376;27;19922;-43
2022/02/15 01:02:03;;;;;;;;;;;;;;;;;;2133758;27;19922;-42
2022/02/15 01:03:04;;;;;;;;;;;;;;;;;;2138947;27;19923;-42
2022/02/15 01:04:05;;;;;;;;;;;;;;;;;;2140489;27;19930;-42
2022/02/15 01:05:06;;;;;;;;;;;;;;;;;;2135626;27;19923;-42
2022/02/15 01:06:06;;;;;;;;;;;;;;;;;;2139686;27;19923;-42
2022/02/15 01:07:07;;;;;;;;;;;;;;;;;;2140489;27;19927;-42
2022/02/15 01:08:11;;;;;;;;;;;;;;;;;;2137887;27;20367;-43
2022/02/15 01:09:12;;;;;;;;;;;;;;;;;;2140596;27;20009;-42
2022/02/15 01:10:13;;;;;;;;;;;;;;;;;;2140503;27;19922;-42
2022/02/15 01:11:14;;;;;;;;;;;;;;;;;;2138315;27;19967;-43
2022/02/15 01:12:15;;;;;;;;;;;;;;;;;;2136456;27;19923;-44
2022/02/15 01:13:17;;;;;;;;;;;;;;;;;;2133992;27;19930;-42
2022/02/15 01:14:18;;;;;;;;;;;;;;;;;;2137735;27;20332;-42
2022/02/15 01:15:19;;;;;;;;;;;;;;;;;;2140549;27;19922;-42
2022/02/15 01:16:19;;;;;;;;;;;;;;;;;;2138660;27;19922;-43
2022/02/15 01:17:20;;;;;;;;;;;;;;;;;;2138997;27;20253;-43
2022/02/15 01:18:25;;;;;;;;;;;;;;;;;;2140591;27;20129;-42
2022/02/15 01:19:26;;;;;;;;;;;;;;;;;;2137314;27;20379;-42
2022/02/15 01:20:27;;;;;;;;;;;;;;;;;;2140477;27;20432;-42
2022/02/15 01:21:28;;;;;;;;;;;;;;;;;;2140517;27;19927;-43
2022/02/15 01:22:28;;;;;;;;;;;;;;;;;;2137471;27;20360;-43
2022/02/15 01:23:29;;;;;;;;;;;;;;;;;;2140248;27;20295;-42
2022/02/15 01:24:30;;;;;;;;;;;;;;;;;;2138093;27;20053;-42
2022/02/15 01:25:31;;;;;;;;;;;;;;;;;;2136896;27;19968;-43
2022/02/15 01:26:32;;;;;;;;;;;;;;;;;;2140285;27;20291;-43
2022/02/15 01:27:33;;;;;;;;;;;;;;;;;;2140058;27;19929;-42
2022/02/15 01:28:34;;;;;;;;;;;;;;;;;;2132756;27;19923;-42
2022/02/15 01:29:35;;;;;;;;;;;;;;;;;;2131730;27;20317;-42
2022/02/15 01:30:36;;;;;;;;;;;;;;;;;;2133544;27;19923;-43
2022/02/15 01:31:37;;;;;;;;;;;;;;;;;;2139518;27;20403;-43
2022/02/15 01:32:38;;;;;;;;;;;;;;;;;;2140485;27;19922;-43
2022/02/15 01:33:39;;;;;;;;;;;;;;;;;;2136187;27;19946;-42
2022/02/15 01:34:40;;;;;;;;;;;;;;;;;;2131774;27;19926;-42
2022/02/15 01:35:41;;;;;;;;;;;;;;;;;;2131467;27;19930;-42
2022/02/15 01:36:41;;;;;;;;;;;;;;;;;;2135128;27;19923;-42
2022/02/15 01:37:42;;;;;;;;;;;;;;;;;;2140324;27;19930;-42
2022/02/15 01:38:43;;;;;;;;;;;;;;;;;;2139326;27;19954;-48
2022/02/15 01:39:44;;;;;;;;;;;;;;;;;;2137181;27;20401;-48
2022/02/15 01:40:45;;;;;;;;;;;;;;;;;;2140403;27;19965;-51
2022/02/15 01:41:46;;;;;;;;;;;;;;;;;;2138535;27;20308;-49
2022/02/15 01:42:46;;;;;;;;;;;;;;;;;;2137893;27;20405;-49
2022/02/15 01:43:48;;;;;;;;;;;;;;;;;;2140411;27;19930;-49
2022/02/15 01:44:49;;;;;;;;;;;;;;;;;;2136928;27;20124;-48
2022/02/15 01:45:50;;;;;;;;;;;;;;;;;;2132161;27;20383;-42
2022/02/15 01:46:50;;;;;;;;;;;;;;;;;;2131635;27;20009;-43
2022/02/15 01:47:51;;;;;;;;;;;;;;;;;;2137153;27;19966;-42
2022/02/15 01:48:52;;;;;;;;;;;;;;;;;;2140267;27;19922;-42
2022/02/15 01:49:53;;;;;;;;;;;;;;;;;;2139432;27;19975;-42
2022/02/15 01:50:58;;;;;;;;;;;;;;;;;;2134769;27;20260;-42
2022/02/15 01:51:59;;;;;;;;;;;;;;;;;;2140492;27;20021;-42
2022/02/15 01:53:00;;;;;;;;;;;;;;;;;;2139416;27;19934;-42
2022/02/15 01:54:01;;;;;;;;;;;;;;;;;;2138003;27;19923;-42
2022/02/15 01:55:02;;;;;;;;;;;;;;;;;;2140353;27;19923;-43
2022/02/15 01:56:05;;;;;;;;;;;;;;;;;;2138287;27;20336;-42
2022/02/15 01:57:06;;;;;;;;;;;;;;;;;;2131574;27;20419;-42
2022/02/15 01:58:07;;;;;;;;;;;;;;;;;;2131653;27;19923;-42
2022/02/15 01:59:08;;;;;;;;;;;;;;;;;;2135547;27;20023;-42
2022/02/15 02:00:09;;;;;;;;;;;;;;;;;;2131551;27;19966;-43
2022/02/15 02:01:10;;;;;;;;;;;;;;;;;;2131399;27;19934;-42
2022/02/15 02:02:10;;;;;;;;;;;;;;;;;;2134636;27;20366;-42
2022/02/15 02:03:11;;;;;;;;;;;;;;;;;;2140175;27;19945;-43
2022/02/15 02:06:47;;;;;;;;;;;;;;;;;;2140162;27;20379;-48
2022/02/15 02:07:48;;;;;;;;;;;;;;;;;;2134324;27;19929;-50
2022/02/15 02:08:49;;;;;;;;;;;;;;;;;;2131400;27;20025;-47
2022/02/15 02:09:49;;;;;;;;;;;;;;;;;;2133639;27;19927;-48
2022/02/15 02:10:50;;;;;;;;;;;;;;;;;;2136329;27;19923;-49
2022/02/15 02:11:51;;;;;;;;;;;;;;;;;;2140257;27;20037;-48
2022/02/15 02:12:53;;;;;;;;;;;;;;;;;;2136269;27;19935;-48
2022/02/15 02:13:54;;;;;;;;;;;;;;;;;;2138325;27;20014;-47
2022/02/15 02:14:55;;;;;;;;;;;;;;;;;;2140245;27;20325;-48
2022/02/15 02:15:55;;;;;;;;;;;;;;;;;;2138226;27;20010;-48
2022/02/15 02:16:56;;;;;;;;;;;;;;;;;;2132370;27;19966;-49
2022/02/15 02:17:57;;;;;;;;;;;;;;;;;;2131427;27;19970;-48
2022/02/15 02:18:58;;;;;;;;;;;;;;;;;;2135503;27;19937;-48
2022/02/15 02:19:59;;;;;;;;;;;;;;;;;;2140349;27;19969;-48
2022/02/15 02:21:00;;;;;;;;;;;;;;;;;;2139495;27;19922;-50
2022/02/15 02:22:01;;;;;;;;;;;;;;;;;;2134811;27;19923;-48
2022/02/15 02:23:02;;;;;;;;;;;;;;;;;;2140152;27;20430;-48
2022/02/15 02:24:03;;;;;;;;;;;;;;;;;;2140572;27;19923;-42
2022/02/15 02:25:04;;;;;;;;;;;;;;;;;;2136728;27;19923;-42
2022/02/15 02:26:05;;;;;;;;;;;;;;;;;;2139933;27;19922;-42
2022/02/15 02:27:05;;;;;;;;;;;;;;;;;;2138434;27;19922;-42
2022/02/15 02:28:07;;;;;;;;;;;;;;;;;;2137672;27;19975;-42
2022/02/15 02:29:07;;;;;;;;;;;;;;;;;;2140221;27;20021;-48
2022/02/15 02:30:08;;;;;;;;;;;;;;;;;;2138670;27;19931;-48
2022/02/15 02:31:09;;;;;;;;;;;;;;;;;;2139431;27;20268;-48
2022/02/15 02:32:11;;;;;;;;;;;;;;;;;;2140201;27;19973;-42
2022/02/15 02:33:12;;;;;;;;;;;;;;;;;;2135599;27;20009;-42
2022/02/15 02:34:12;;;;;;;;;;;;;;;;;;2139961;27;19923;-42
2022/02/15 02:35:13;;;;;;;;;;;;;;;;;;2140262;27;19971;-42
2022/02/15 02:36:14;;;;;;;;;;;;;;;;;;2138285;27;19962;-42
2022/02/15 02:37:15;;;;;;;;;;;;;;;;;;2141572;27;19927;-42
2022/02/15 02:38:16;;;;;;;;;;;;;;;;;;2141354;27;19923;-42
2022/02/15 02:39:19;;;;;;;;;;;;;;;;;;2133855;27;19930;-42
2022/02/15 02:40:20;;;;;;;;;;;;;;;;;;2132965;27;19934;-42
2022/02/15 02:41:21;;;;;;;;;;;;;;;;;;2135300;27;19927;-42
2022/02/15 02:42:22;;;;;;;;;;;;;;;;;;2133259;27;19931;-42
2022/02/15 02:43:23;;;;;;;;;;;;;;;;;;2132772;27;20033;-43
2022/02/15 02:44:24;;;;;;;;;;;;;;;;;;2135897;27;19923;-43
2022/02/15 02:45:25;;;;;;;;;;;;;;;;;;2132891;27;20018;-42
2022/02/15 02:46:26;;;;;;;;;;;;;;;;;;2132783;27;19923;-43
2022/02/15 02:47:27;;;;;;;;;;;;;;;;;;2137126;27;19927;-42
2022/02/15 02:48:28;;;;;;;;;;;;;;;;;;2141521;27;19944;-42
2022/02/15 02:49:28;;;;;;;;;;;;;;;;;;2142121;27;20375;-43
2022/02/15 02:50:30;;;;;;;;;;;;;;;;;;2135769;27;20408;-42
2022/02/15 02:51:31;;;;;;;;;;;;;;;;;;2132795;27;20010;-42
2022/02/15 02:52:32;;;;;;;;;;;;;;;;;;2132016;27;19930;-42
2022/02/15 02:53:37;;;;;;;;;;;;;;;;;;2139195;27;20010;-43
2022/02/15 02:54:38;;;;;;;;;;;;;;;;;;2141316;27;19930;-43
2022/02/15 02:55:39;;;;;;;;;;;;;;;;;;2139526;27;19938;-44
2022/02/15 02:56:40;;;;;;;;;;;;;;;;;;2133197;27;19934;-43
2022/02/15 02:57:41;;;;;;;;;;;;;;;;;;2132760;27;20401;-43
2022/02/15 02:58:41;;;;;;;;;;;;;;;;;;2134188;27;19923;-43
2022/02/15 02:59:42;;;;;;;;;;;;;;;;;;2132682;27;20017;-43
2022/02/15 03:00:43;;;;;;;;;;;;;;;;;;2133003;27;19923;-43
2022/02/15 03:01:44;;;;;;;;;;;;;;;;;;2137646;27;20371;-44
2022/02/15 03:02:45;;;;;;;;;;;;;;;;;;2141671;27;19923;-43
2022/02/15 03:03:46;;;;;;;;;;;;;;;;;;2141172;27;20252;-44
2022/02/15 03:04:47;;;;;;;;;;;;;;;;;;2137549;27;19923;-43
2022/02/15 03:05:48;;;;;;;;;;;;;;;;;;2141286;27;19927;-43
2022/02/15 03:06:48;;;;;;;;;;;;;;;;;;2139531;27;20033;-43
2022/02/15 03:07:49;;;;;;;;;;;;;;;;;;2139886;27;19923;-43
2022/02/15 03:08:50;;;;;;;;;;;;;;;;;;2141431;27;19926;-43
2022/02/15 03:09:51;;;;;;;;;;;;;;;;;;2136739;27;20234;-42
2022/02/15 03:10:52;;;;;;;;;;;;;;;;;;2141099;27;19982;-44
2022/02/15 03:11:52;;;;;;;;;;;;;;;;;;2141217;27;19929;-42
2022/02/15 03:12:53;;;;;;;;;;;;;;;;;;2139412;27;20316;-44
2022/02/15 03:13:54;;;;;;;;;;;;;;;;;;2141387;27;20375;-43
2022/02/15 03:14:55;;;;;;;;;;;;;;;;;;2141363;27;20149;-43
2022/02/15 03:15:56;;;;;;;;;;;;;;;;;;2140219;27;19930;-43
2022/02/15 03:16:59;;;;;;;;;;;;;;;;;;2141395;27;19923;-43
2022/02/15 03:18:00;;;;;;;;;;;;;;;;;;2137810;27;20002;-43
2022/02/15 03:19:03;;;;;;;;;;;;;;;;;;2140745;27;19923;-43
2022/02/15 03:20:04;;;;;;;;;;;;;;;;;;2141406;27;19923;-43
2022/02/15 03:21:05;;;;;;;;;;;;;;;;;;2138073;27;19922;-43
2022/02/15 03:22:06;;;;;;;;;;;;;;;;;;2141236;27;19926;-43
2022/02/15 03:23:06;;;;;;;;;;;;;;;;;;2141041;27;19922;-43
2022/02/15 03:24:07;;;;;;;;;;;;;;;;;;2138161;27;19930;-43
2022/02/15 03:25:08;;;;;;;;;;;;;;;;;;2141330;27;20013;-43
2022/02/15 03:26:09;;;;;;;;;;;;;;;;;;2140977;27;19923;-43
2022/02/15 03:27:10;;;;;;;;;;;;;;;;;;2138135;27;19937;-43
2022/02/15 03:28:11;;;;;;;;;;;;;;;;;;2141202;27;19923;-43
2022/02/15 03:29:12;;;;;;;;;;;;;;;;;;2139439;27;19927;-43
2022/02/15 03:30:13;;;;;;;;;;;;;;;;;;2133219;27;19978;-44
2022/02/15 03:31:13;;;;;;;;;;;;;;;;;;2132611;27;19972;-43
2022/02/15 03:32:14;;;;;;;;;;;;;;;;;;2135286;27;20026;-43
2022/02/15 03:33:15;;;;;;;;;;;;;;;;;;2132569;27;20010;-43
2022/02/15 03:34:16;;;;;;;;;;;;;;;;;;2132607;27;19923;-43
2022/02/15 03:35:18;;;;;;;;;;;;;;;;;;2136786;27;19933;-43
2022/02/15 03:36:19;;;;;;;;;;;;;;;;;;2141231;27;19923;-43
2022/02/15 03:37:20;;;;;;;;;;;;;;;;;;2140606;27;19926;-43
2022/02/15 03:38:21;;;;;;;;;;;;;;;;;;2137178;27;19923;-42
2022/02/15 03:39:22;;;;;;;;;;;;;;;;;;2141106;27;20347;-42
2022/02/15 03:43:04;;;;;;;;;;;;;;;;;;2140452;27;19923;-43
2022/02/15 03:43:06;;;;;;;;;;;;;;;;;;2134621;27;20044;-42
2022/02/15 03:44:07;;;;;;;;;;;;;;;;;;2133178;27;20009;-42
2022/02/15 03:45:08;;;;;;;;;;;;;;;;;;2132421;27;19924;-42
2022/02/15 03:46:09;;;;;;;;;;;;;;;;;;2134206;27;20350;-43
2022/02/15 03:47:10;;;;;;;;;;;;;;;;;;2133461;27;19969;-42
2022/02/15 03:48:11;;;;;;;;;;;;;;;;;;2132566;27;19962;-50
2022/02/15 03:49:12;;;;;;;;;;;;;;;;;;2135505;27;19951;-48
2022/02/15 03:50:13;;;;;;;;;;;;;;;;;;2140360;27;19983;-48
2022/02/15 03:51:13;;;;;;;;;;;;;;;;;;2141101;27;20014;-48
2022/02/15 03:52:14;;;;;;;;;;;;;;;;;;2138890;27;20412;-48
2022/02/15 03:53:15;;;;;;;;;;;;;;;;;;2140981;27;19926;-51
2022/02/15 03:54:16;;;;;;;;;;;;;;;;;;2140803;27;19927;-48
2022/02/15 03:55:17;;;;;;;;;;;;;;;;;;2137916;27;19931;-49
2022/02/15 03:56:19;;;;;;;;;;;;;;;;;;2140870;27;19967;-47
2022/02/15 03:57:20;;;;;;;;;;;;;;;;;;2140789;27;20017;-49
2022/02/15 03:58:21;;;;;;;;;;;;;;;;;;2138081;27;19941;-49
2022/02/15 03:59:22;;;;;;;;;;;;;;;;;;2141018;27;19923;-48
2022/02/15 04:00:22;;;;;;;;;;;;;;;;;;2139357;27;20256;-48
2022/02/15 04:01:23;;;;;;;;;;;;;;;;;;2133166;27;20017;-48
2022/02/15 04:02:24;;;;;;;;;;;;;;;;;;2132320;27;19923;-49
2022/02/15 04:03:25;;;;;;;;;;;;;;;;;;2135367;27;19923;-47
2022/02/15 04:04:26;;;;;;;;;;;;;;;;;;2140804;27;19922;-48
2022/02/15 04:05:29;;;;;;;;;;;;;;;;;;2141067;27;19926;-48
2022/02/15 04:06:30;;;;;;;;;;;;;;;;;;2136328;27;20056;-48
2022/02/15 04:07:31;;;;;;;;;;;;;;;;;;2132310;27;19927;-49
2022/02/15 04:08:31;;;;;;;;;;;;;;;;;;2134265;27;19930;-48
2022/02/15 04:09:32;;;;;;;;;;;;;;;;;;2137213;27;20025;-48
2022/02/15 04:10:33;;;;;;;;;;;;;;;;;;2140986;27;20009;-49
2022/02/15 04:11:35;;;;;;;;;;;;;;;;;;2139927;27;19946;-47
2022/02/15 04:12:37;;;;;;;;;;;;;;;;;;2139055;27;19923;-51
2022/02/15 04:13:38;;;;;;;;;;;;;;;;;;2140894;27;20263;-50
2022/02/15 04:14:39;;;;;;;;;;;;;;;;;;2138760;27;19923;-49
2022/02/15 04:15:40;;;;;;;;;;;;;;;;;;2139786;27;19975;-49
2022/02/15 04:16:41;;;;;;;;;;;;;;;;;;2140926;27;20001;-51
2022/02/15 04:17:42;;;;;;;;;;;;;;;;;;2137665;27;20342;-48
2022/02/15 04:18:47;;;;;;;;;;;;;;;;;;2141034;27;19923;-48
2022/02/15 04:19:48;;;;;;;;;;;;;;;;;;2140668;27;20415;-51
2022/02/15 04:20:48;;;;;;;;;;;;;;;;;;2137595;27;20391;-49
2022/02/15 04:21:49;;;;;;;;;;;;;;;;;;2140943;27;19922;-49
2022/02/15 04:22:50;;;;;;;;;;;;;;;;;;2139441;27;19949;-47
2022/02/15 04:23:51;;;;;;;;;;;;;;;;;;2137912;27;19933;-48
2022/02/15 04:24:52;;;;;;;;;;;;;;;;;;2140970;27;19929;-48
2022/02/15 04:25:55;;;;;;;;;;;;;;;;;;2140185;27;20063;-48
2022/02/15 04:26:57;;;;;;;;;;;;;;;;;;2139404;27;20324;-49
2022/02/15 04:27:57;;;;;;;;;;;;;;;;;;2140656;27;20279;-49
2022/02/15 04:28:58;;;;;;;;;;;;;;;;;;2137491;27;19923;-48
2022/02/15 04:30:00;;;;;;;;;;;;;;;;;;2140894;27;19933;-48
2022/02/15 04:31:04;;;;;;;;;;;;;;;;;;2140667;27;19923;-51
2022/02/15 04:32:04;;;;;;;;;;;;;;;;;;2139253;27;19923;-54
2022/02/15 04:33:07;;;;;;;;;;;;;;;;;;2140695;27;19945;-49
2022/02/15 04:34:07;;;;;;;;;;;;;;;;;;2139830;27;19923;-48
2022/02/15 04:35:09;;;;;;;;;;;;;;;;;;2132914;27;19923;-48
2022/02/15 04:36:10;;;;;;;;;;;;;;;;;;2132606;27;19923;-43
2022/02/15 04:37:10;;;;;;;;;;;;;;;;;;2135182;27;19973;-43
2022/02/15 04:38:11;;;;;;;;;;;;;;;;;;2138261;27;20403;-44
2022/02/15 04:39:12;;;;;;;;;;;;;;;;;;2140860;27;19922;-49
2022/02/15 04:40:13;;;;;;;;;;;;;;;;;;2139107;27;19931;-49
2022/02/15 04:41:14;;;;;;;;;;;;;;;;;;2140272;27;20287;-51
2022/02/15 04:42:16;;;;;;;;;;;;;;;;;;2140626;27;20018;-49
2022/02/15 04:43:17;;;;;;;;;;;;;;;;;;2136044;27;19927;-49
2022/02/15 04:44:18;;;;;;;;;;;;;;;;;;2132477;27;20287;-49
2022/02/15 04:45:19;;;;;;;;;;;;;;;;;;2131716;27;19964;-49
2022/02/15 04:46:20;;;;;;;;;;;;;;;;;;2135765;27;19923;-49
2022/02/15 04:47:20;;;;;;;;;;;;;;;;;;2140602;27;19926;-49
2022/02/15 04:48:22;;;;;;;;;;;;;;;;;;2138815;27;20375;-49
2022/02/15 04:49:22;;;;;;;;;;;;;;;;;;2132805;27;20326;-49
2022/02/15 04:50:23;;;;;;;;;;;;;;;;;;2131994;27;19923;-48
2022/02/15 04:51:24;;;;;;;;;;;;;;;;;;2133789;27;19930;-49
2022/02/15 04:52:25;;;;;;;;;;;;;;;;;;2133051;27;20459;-48
2022/02/15 04:53:26;;;;;;;;;;;;;;;;;;2131968;27;19923;-49
2022/02/15 04:54:27;;;;;;;;;;;;;;;;;;2136344;27;19927;-48
2022/02/15 04:55:28;;;;;;;;;;;;;;;;;;2132092;27;19927;-53
2022/02/15 04:56:29;;;;;;;;;;;;;;;;;;2131937;27;20407;-49
2022/02/15 04:57:29;;;;;;;;;;;;;;;;;;2133858;27;20020;-48
2022/02/15 04:58:31;;;;;;;;;;;;;;;;;;2139953;27;19971;-49
2022/02/15 04:59:32;;;;;;;;;;;;;;;;;;2141194;27;19922;-50
2022/02/15 05:00:33;;;;;;;;;;;;;;;;;;2136726;27;19922;-48
2022/02/15 05:01:34;;;;;;;;;;;;;;;;;;2133754;27;19976;-49
2022/02/15 05:02:35;;;;;;;;;;;;;;;;;;2131133;27;19931;-49
2022/02/15 05:03:36;;;;;;;;;;;;;;;;;;2138732;27;19923;-49
2022/02/15 05:04:49;;;;;;;;;;;;;;;;;;2140635;27;19927;-52
2022/02/15 05:05:50;;;;;;;;;;;;;;;;;;2134180;27;20394;-52
2022/02/15 05:06:51;;;;;;;;;;;;;;;;;;2131854;27;19927;-48
2022/02/15 05:07:51;;;;;;;;;;;;;;;;;;2131831;27;20375;-51
2022/02/15 05:08:52;;;;;;;;;;;;;;;;;;2136950;27;19923;-48
2022/02/15 05:09:53;;;;;;;;;;;;;;;;;;2140680;27;20428;-44
2022/02/15 05:10:54;;;;;;;;;;;;;;;;;;2141255;27;19966;-43
2022/02/15 05:11:55;;;;;;;;;;;;;;;;;;2136748;27;19922;-43
2022/02/15 05:12:56;;;;;;;;;;;;;;;;;;2140618;27;19973;-43
2022/02/15 05:13:57;;;;;;;;;;;;;;;;;;2138016;27;19923;-44
2022/02/15 05:14:58;;;;;;;;;;;;;;;;;;2138750;27;19923;-43
2022/02/15 05:15:59;;;;;;;;;;;;;;;;;;2140891;27;19927;-48
2022/02/15 05:17:00;;;;;;;;;;;;;;;;;;2138242;27;19924;-48
2022/02/15 05:18:01;;;;;;;;;;;;;;;;;;2139443;27;20443;-48
2022/02/15 05:19:02;;;;;;;;;;;;;;;;;;2140467;27;19975;-50
2022/02/15 05:20:04;;;;;;;;;;;;;;;;;;2137278;27;20427;-48
2022/02/15 05:21:05;;;;;;;;;;;;;;;;;;2140319;27;19923;-48
2022/02/15 05:22:06;;;;;;;;;;;;;;;;;;2140156;27;19922;-49
2022/02/15 05:23:07;;;;;;;;;;;;;;;;;;2137373;27;20021;-51
2022/02/15 05:24:08;;;;;;;;;;;;;;;;;;2140737;27;20311;-43
2022/02/15 05:25:10;;;;;;;;;;;;;;;;;;2140794;27;19926;-49
2022/02/15 05:26:10;;;;;;;;;;;;;;;;;;2137295;27;19995;-49
2022/02/15 05:27:12;;;;;;;;;;;;;;;;;;2140432;27;19976;-48
2022/02/15 05:28:12;;;;;;;;;;;;;;;;;;2139544;27;19934;-49
2022/02/15 05:29:13;;;;;;;;;;;;;;;;;;2132606;27;20272;-51
2022/02/15 05:30:14;;;;;;;;;;;;;;;;;;2131678;27;19930;-47
2022/02/15 05:31:15;;;;;;;;;;;;;;;;;;2133321;27;19923;-49
2022/02/15 05:32:16;;;;;;;;;;;;;;;;;;2140386;27;19930;-51
2022/02/15 05:33:17;;;;;;;;;;;;;;;;;;2140356;27;19927;-47
2022/02/15 05:34:18;;;;;;;;;;;;;;;;;;2138182;27;19923;-50
2022/02/15 05:35:19;;;;;;;;;;;;;;;;;;2140381;27;20302;-49
2022/02/15 05:36:20;;;;;;;;;;;;;;;;;;2140392;27;20156;-48
2022/02/15 05:37:21;;;;;;;;;;;;;;;;;;2136736;27;19927;-48
2022/02/15 05:38:22;;;;;;;;;;;;;;;;;;2140375;27;19923;-50
2022/02/15 05:39:23;;;;;;;;;;;;;;;;;;2136937;27;20502;-50
2022/02/15 05:40:24;;;;;;;;;;;;;;;;;;2132651;27;19946;-49
2022/02/15 05:41:24;;;;;;;;;;;;;;;;;;2131736;27;20278;-48
2022/02/15 05:42:25;;;;;;;;;;;;;;;;;;2132907;27;20388;-50
2022/02/15 05:43:26;;;;;;;;;;;;;;;;;;2138993;27;20006;-48
2022/02/15 05:44:27;;;;;;;;;;;;;;;;;;2140705;27;19954;-49
2022/02/15 05:45:28;;;;;;;;;;;;;;;;;;2137037;27;20442;-51
2022/02/15 05:46:29;;;;;;;;;;;;;;;;;;2140379;27;20429;-50
2022/02/15 05:47:30;;;;;;;;;;;;;;;;;;2140233;27;19923;-51
2022/02/15 05:48:31;;;;;;;;;;;;;;;;;;2136881;27;19933;-45
2022/02/15 05:50:49;;;;;;;;;;;;;;;;;;2140304;27;20014;-44
2022/02/15 05:50:53;;;;;;;;;;;;;;;;;;2136678;27;20470;-44
2022/02/15 05:51:54;;;;;;;;;;;;;;;;;;2132574;27;20137;-44
2022/02/15 05:52:54;;;;;;;;;;;;;;;;;;2131618;27;20337;-44
2022/02/15 05:53:55;;;;;;;;;;;;;;;;;;2134753;27;19923;-50
2022/02/15 05:54:56;;;;;;;;;;;;;;;;;;2140299;27;20021;-48
2022/02/15 05:55:59;;;;;;;;;;;;;;;;;;2140305;27;19923;-51
2022/02/15 05:57:00;;;;;;;;;;;;;;;;;;2133743;27;19923;-50
2022/02/15 05:58:01;;;;;;;;;;;;;;;;;;2131617;27;19972;-49
2022/02/15 05:59:02;;;;;;;;;;;;;;;;;;2132965;27;19950;-50
2022/02/15 06:00:02;;;;;;;;;;;;;;;;;;2133956;27;19923;-49
2022/02/15 06:01:04;;;;;;;;;;;;;;;;;;2131380;27;19923;-49
2022/02/15 06:02:04;;;;;;;;;;;;;;;;;;2134737;27;19929;-48
2022/02/15 06:04:09;;;;;;;;;;;;;;;;;;2132312;27;19946;-49
2022/02/15 06:04:26;;;;;;;;;;;;;;;;;;2131600;27;19948;-51
2022/02/15 06:05:28;;;;;;;;;;;;;;;;;;2135819;27;19934;-49
2022/02/15 06:06:28;;;;;;;;;;;;;;;;;;2140200;27;20059;-49
2022/02/15 06:07:29;;;;;;;;;;;;;;;;;;2140147;27;19975;-48
2022/02/15 06:08:31;;;;;;;;;;;;;;;;;;2138112;27;19966;-50
2022/02/15 06:09:32;;;;;;;;;;;;;;;;;;2140265;27;19923;-49
2022/02/15 06:10:33;;;;;;;;;;;;;;;;;;2141809;27;20014;-51
2022/02/15 06:11:34;;;;;;;;;;;;;;;;;;2138004;27;19923;-51
2022/02/15 06:12:36;;;;;;;;;;;;;;;;;;2141588;27;19929;-49
2022/02/15 06:13:37;;;;;;;;;;;;;;;;;;2139824;27;19923;-51
2022/02/15 06:14:38;;;;;;;;;;;;;;;;;;2140275;27;19923;-50
2022/02/15 06:15:39;;;;;;;;;;;;;;;;;;2141730;27;19922;-50
2022/02/15 06:16:40;;;;;;;;;;;;;;;;;;2137083;27;20295;-49
2022/02/15 06:17:41;;;;;;;;;;;;;;;;;;2141692;27;20190;-50
2022/02/15 06:18:42;;;;;;;;;;;;;;;;;;2141921;27;20004;-44
2022/02/15 06:19:43;;;;;;;;;;;;;;;;;;2138362;27;20035;-44
2022/02/15 06:20:43;;;;;;;;;;;;;;;;;;2141596;27;19927;-44
2022/02/15 06:21:44;;;;;;;;;;;;;;;;;;2142397;27;20348;-45
2022/02/15 06:22:45;;;;;;;;;;;;;;;;;;2134886;27;19929;-43
2022/02/15 06:23:46;;;;;;;;;;;;;;;;;;2132998;27;19923;-45
2022/02/15 06:24:47;;;;;;;;;;;;;;;;;;2135221;27;19930;-44
2022/02/15 06:25:48;;;;;;;;;;;;;;;;;;2139659;27;20034;-44
2022/02/15 06:26:49;;;;;;;;;;;;;;;;;;2141592;27;20013;-44
2022/02/15 06:27:50;;;;;;;;;;;;;;;;;;2139473;27;20434;-44
2022/02/15 06:28:50;;;;;;;;;;;;;;;;;;2132784;27;19931;-43
2022/02/15 06:29:51;;;;;;;;;;;;;;;;;;2132920;27;20010;-44
2022/02/15 06:30:52;;;;;;;;;;;;;;;;;;2136545;27;19923;-44
2022/02/15 06:31:54;;;;;;;;;;;;;;;;;;2141576;27;20025;-44
2022/02/15 06:32:54;;;;;;;;;;;;;;;;;;2141552;27;20024;-45
2022/02/15 06:33:55;;;;;;;;;;;;;;;;;;2136287;27;19962;-44
2022/02/15 06:34:56;;;;;;;;;;;;;;;;;;2132921;27;19950;-44
2022/02/15 06:35:57;;;;;;;;;;;;;;;;;;2133631;27;19976;-44
2022/02/15 06:36:59;;;;;;;;;;;;;;;;;;2138167;27;20314;-44
2022/02/15 06:38:00;;;;;;;;;;;;;;;;;;2141478;27;19929;-50
2022/02/15 06:39:01;;;;;;;;;;;;;;;;;;2139797;27;19930;-53
2022/02/15 06:40:02;;;;;;;;;;;;;;;;;;2140370;27;20294;-52
2022/02/15 06:41:03;;;;;;;;;;;;;;;;;;2141585;27;19923;-50
2022/02/15 06:42:03;;;;;;;;;;;;;;;;;;2137216;27;19931;-53
2022/02/15 06:43:05;;;;;;;;;;;;;;;;;;2141173;27;20152;-50
2022/02/15 06:44:06;;;;;;;;;;;;;;;;;;2141562;27;20365;-52
2022/02/15 06:45:07;;;;;;;;;;;;;;;;;;2135539;27;19923;-50
2022/02/15 06:46:08;;;;;;;;;;;;;;;;;;2132944;27;19923;-52
2022/02/15 06:47:09;;;;;;;;;;;;;;;;;;2132525;27;20071;-50
2022/02/15 06:48:11;;;;;;;;;;;;;;;;;;2136645;27;19952;-49
2022/02/15 06:49:12;;;;;;;;;;;;;;;;;;2141833;27;20017;-52
2022/02/15 06:50:13;;;;;;;;;;;;;;;;;;2140847;27;19923;-51
2022/02/15 06:51:14;;;;;;;;;;;;;;;;;;2137919;27;19930;-52
2022/02/15 06:52:15;;;;;;;;;;;;;;;;;;2141786;27;20392;-44
2022/02/15 06:53:17;;;;;;;;;;;;;;;;;;2139585;27;19935;-45
2022/02/15 06:54:38;;;;;;;;;;;;;;;;;;2132679;27;20376;-44
2022/02/15 06:55:39;;;;;;;;;;;;;;;;;;2133360;27;19924;-44
2022/02/15 06:56:41;;;;;;;;;;;;;;;;;;2138297;27;19929;-44
2022/02/15 06:57:42;;;;;;;;;;;;;;;;;;2141362;27;19962;-45
2022/02/15 06:58:43;;;;;;;;;;;;;;;;;;2140867;27;19922;-44
2022/02/15 06:59:43;;;;;;;;;;;;;;;;;;2133572;27;20440;-44
2022/02/15 07:00:44;;;;;;;;;;;;;;;;;;2132698;27;19975;-44
2022/02/15 07:01:46;;;;;;;;;;;;;;;;;;2131672;27;20380;-44